Time;durP1;ratioP1;P1;durP2;ratioP2;P2;SDS_P1;SDS_P2;PMS_P1;PMS_P2;Temp;Humidity;BMP_temperature;BMP_pressure;BME280_temperature;BME280_humidity;BME280_pressure;Samples;Min_cycle;Max_cycle;Signal;HPM_P1;HPM_P2
2023/05/15 00:01:16;;;;;;;1.98;1.88;;;10.10;99.90;;;;;;5011927;28;20030;-79
2023/05/15 00:03:42;;;;;;;4.25;2.40;;;10.10;99.90;;;;;;5016037;28;20053;-78
2023/05/15 00:06:08;;;;;;;2.40;2.20;;;10.20;99.90;;;;;;5010614;28;20497;-79
2023/05/15 00:08:33;;;;;;;3.10;2.53;;;10.30;99.90;;;;;;5012881;28;20096;-78
2023/05/15 00:10:59;;;;;;;2.42;2.15;;;10.20;99.90;;;;;;5016551;28;20466;-79
2023/05/15 00:13:24;;;;;;;3.15;2.63;;;10.20;99.90;;;;;;5015492;28;20067;-79
2023/05/15 00:15:50;;;;;;;2.92;2.50;;;10.10;99.90;;;;;;5010676;28;20042;-78
2023/05/15 00:18:16;;;;;;;3.38;2.72;;;10.00;99.90;;;;;;5013215;28;20116;-79
2023/05/15 00:20:41;;;;;;;3.47;2.55;;;10.00;99.90;;;;;;5014449;28;20041;-79
2023/05/15 00:23:08;;;;;;;3.45;2.15;;;10.00;99.90;;;;;;5016082;28;20034;-79
2023/05/15 00:25:33;;;;;;;3.15;2.72;;;10.00;99.90;;;;;;5012771;28;20446;-79
2023/05/15 00:27:59;;;;;;;3.10;2.80;;;10.00;99.90;;;;;;4997684;28;20026;-79
2023/05/15 00:30:24;;;;;;;3.03;2.72;;;10.00;99.90;;;;;;5009836;28;20338;-79
2023/05/15 00:32:50;;;;;;;4.47;3.13;;;9.90;99.90;;;;;;5013159;28;20038;-79
2023/05/15 00:35:16;;;;;;;4.57;3.42;;;10.00;99.90;;;;;;5012482;28;20096;-79
2023/05/15 00:37:42;;;;;;;4.65;3.42;;;10.00;99.90;;;;;;5018552;28;20053;-79
2023/05/15 00:40:11;;;;;;;4.18;3.13;;;10.10;99.90;;;;;;5018082;28;20037;-78
2023/05/15 00:42:37;;;;;;;3.83;2.92;;;10.10;99.90;;;;;;5015432;28;20045;-79
2023/05/15 00:45:07;;;;;;;5.38;3.28;;;10.10;99.90;;;;;;5018443;28;20105;-79
2023/05/15 00:47:34;;;;;;;3.90;3.50;;;10.20;99.90;;;;;;5016248;28;20034;-79
2023/05/15 00:50:00;;;;;;;3.88;3.30;;;10.30;99.90;;;;;;5018201;28;20539;-78
2023/05/15 00:52:26;;;;;;;4.00;3.20;;;10.30;99.90;;;;;;5018490;28;20026;-79
2023/05/15 00:54:51;;;;;;;6.00;3.60;;;10.20;99.90;;;;;;5017518;28;20029;-79
2023/05/15 00:57:17;;;;;;;4.30;3.25;;;10.20;99.90;;;;;;5012773;28;20010;-79
2023/05/15 00:59:45;;;;;;;4.40;3.25;;;10.30;99.90;;;;;;5017281;28;20037;-79
2023/05/15 01:02:14;;;;;;;4.20;3.70;;;10.20;99.90;;;;;;5013465;28;20513;-77
2023/05/15 01:04:40;;;;;;;4.30;3.30;;;10.20;99.90;;;;;;5011375;28;20046;-77
2023/05/15 01:07:05;;;;;;;3.47;3.10;;;10.30;99.90;;;;;;5013007;28;20041;-78
2023/05/15 01:09:32;;;;;;;3.90;2.90;;;10.30;99.90;;;;;;5017722;28;20537;-76
2023/05/15 01:11:59;;;;;;;3.22;2.72;;;10.20;99.90;;;;;;5015171;28;20688;-77
2023/05/15 01:14:26;;;;;;;5.70;3.10;;;10.30;99.90;;;;;;5010759;28;20034;-77
2023/05/15 01:16:51;;;;;;;3.33;2.95;;;10.30;99.90;;;;;;5016542;28;20062;-76
2023/05/15 01:19:17;;;;;;;2.72;2.53;;;10.30;99.90;;;;;;5020407;28;20034;-77
2023/05/15 01:22:04;;;;;;;3.95;3.15;;;10.30;99.90;;;;;;5017534;28;20045;-77
2023/05/15 01:25:07;;;;;;;3.13;2.83;;;10.20;99.90;;;;;;5013263;28;20034;-77
2023/05/15 01:27:41;;;;;;;3.72;3.15;;;10.20;99.90;;;;;;5013990;28;20030;-77
2023/05/15 01:30:27;;;;;;;5.38;2.95;;;10.30;99.90;;;;;;5011076;28;20041;-77
2023/05/15 01:33:15;;;;;;;4.38;2.92;;;10.30;99.90;;;;;;5016607;28;20398;-77
2023/05/15 01:35:49;;;;;;;3.25;2.88;;;10.20;99.90;;;;;;4990053;28;20038;-77
2023/05/15 01:38:23;;;;;;;3.50;2.88;;;10.10;99.90;;;;;;5007509;28;20034;-77
2023/05/15 01:41:05;;;;;;;3.78;3.03;;;10.00;99.90;;;;;;5013899;28;20038;-76
2023/05/15 01:43:34;;;;;;;3.55;2.83;;;10.00;99.90;;;;;;5013979;28;20026;-77
2023/05/15 01:46:00;;;;;;;4.78;3.17;;;9.90;99.90;;;;;;5011831;28;20044;-77
2023/05/15 01:48:27;;;;;;;3.67;2.90;;;9.90;99.90;;;;;;5015117;28;20165;-76
2023/05/15 01:50:57;;;;;;;3.10;2.75;;;9.90;99.90;;;;;;5011905;28;20042;-77
2023/05/15 01:53:24;;;;;;;5.10;3.28;;;9.90;99.90;;;;;;5013480;28;20129;-78
2023/05/15 01:55:50;;;;;;;3.35;2.83;;;9.90;99.90;;;;;;5018710;28;20098;-77
2023/05/15 01:58:17;;;;;;;4.13;3.03;;;9.90;99.90;;;;;;5010393;28;20026;-77
2023/05/15 02:00:44;;;;;;;5.65;3.10;;;9.90;99.90;;;;;;5014053;28;20078;-76
2023/05/15 02:03:10;;;;;;;4.47;3.40;;;9.90;99.90;;;;;;5013131;28;20033;-77
2023/05/15 02:05:36;;;;;;;4.28;3.28;;;10.00;99.90;;;;;;5012776;28;20038;-76
2023/05/15 02:08:03;;;;;;;5.05;2.83;;;9.90;99.90;;;;;;5011093;28;20033;-76
2023/05/15 02:10:30;;;;;;;4.38;3.28;;;9.90;99.90;;;;;;5015469;28;20121;-77
2023/05/15 02:12:56;;;;;;;3.78;3.13;;;9.90;99.90;;;;;;5012648;28;20030;-78
2023/05/15 02:15:23;;;;;;;3.90;3.17;;;9.80;99.90;;;;;;5011589;28;20038;-77
2023/05/15 02:17:48;;;;;;;4.57;3.20;;;9.80;99.90;;;;;;5013873;28;20041;-77
2023/05/15 02:20:14;;;;;;;4.60;3.13;;;9.80;99.90;;;;;;5013352;28;20065;-77
2023/05/15 02:22:40;;;;;;;4.40;3.28;;;9.80;99.90;;;;;;5014743;28;20441;-77
2023/05/15 02:25:05;;;;;;;4.03;3.03;;;9.80;99.90;;;;;;5009126;28;20118;-76
2023/05/15 02:27:56;;;;;;;4.13;3.50;;;9.90;99.90;;;;;;5011228;28;20153;-76
2023/05/15 02:30:51;;;;;;;5.47;3.42;;;9.90;99.90;;;;;;5012867;28;20100;-76
2023/05/15 02:33:28;;;;;;;7.18;3.72;;;10.00;99.90;;;;;;5013669;28;20064;-77
2023/05/15 02:36:10;;;;;;;6.25;3.30;;;10.00;99.90;;;;;;5011202;28;20048;-76
2023/05/15 02:38:51;;;;;;;4.95;3.65;;;10.00;99.90;;;;;;5013966;28;20034;-76
2023/05/15 02:41:18;;;;;;;5.25;3.60;;;10.00;99.90;;;;;;5013508;28;20026;-76
2023/05/15 02:43:45;;;;;;;4.70;3.50;;;10.00;99.90;;;;;;5011035;28;20044;-77
2023/05/15 02:46:13;;;;;;;4.20;3.80;;;10.00;99.90;;;;;;5012938;28;20044;-76
2023/05/15 02:48:40;;;;;;;4.75;3.72;;;10.00;99.90;;;;;;5009650;28;20065;-76
2023/05/15 02:51:06;;;;;;;4.93;3.80;;;10.10;99.90;;;;;;5013523;28;20050;-76
2023/05/15 02:53:37;;;;;;;6.60;3.90;;;10.10;99.90;;;;;;4996876;28;20037;-76
2023/05/15 02:56:03;;;;;;;5.55;4.30;;;10.00;99.90;;;;;;5015784;28;20030;-76
2023/05/15 02:58:29;;;;;;;5.53;3.83;;;10.10;99.90;;;;;;5013772;28;20096;-76
2023/05/15 03:00:55;;;;;;;7.85;4.13;;;10.00;99.90;;;;;;5012823;28;20046;-76
2023/05/15 03:03:21;;;;;;;6.53;4.35;;;10.10;99.90;;;;;;5014857;28;20069;-76
2023/05/15 03:05:46;;;;;;;5.63;4.38;;;10.10;99.90;;;;;;5015430;28;20026;-75
2023/05/15 03:08:12;;;;;;;8.57;5.22;;;10.00;99.90;;;;;;5014283;28;20032;-76
2023/05/15 03:10:37;;;;;;;6.57;4.93;;;10.00;99.90;;;;;;5013660;28;20121;-74
2023/05/15 03:13:03;;;;;;;8.18;4.90;;;10.00;99.90;;;;;;5013228;28;20040;-75
2023/05/15 03:15:28;;;;;;;9.23;5.50;;;10.00;99.90;;;;;;5012119;28;20110;-76
2023/05/15 03:17:54;;;;;;;8.75;5.07;;;10.00;99.90;;;;;;5012586;28;20034;-76
2023/05/15 03:20:20;;;;;;;7.97;5.03;;;10.00;99.90;;;;;;5010433;28;20528;-76
2023/05/15 03:22:45;;;;;;;8.95;5.43;;;10.00;99.90;;;;;;5009072;28;20041;-76
2023/05/15 03:25:11;;;;;;;9.63;5.22;;;10.00;99.90;;;;;;5013871;28;20029;-75
2023/05/15 03:27:37;;;;;;;9.52;4.93;;;10.00;99.90;;;;;;5012447;28;20040;-77
2023/05/15 03:30:04;;;;;;;8.63;5.88;;;10.00;99.90;;;;;;5010558;28;20036;-76
2023/05/15 03:32:30;;;;;;;8.77;5.93;;;10.00;99.90;;;;;;4991293;28;20451;-76
2023/05/15 03:34:56;;;;;;;8.50;5.32;;;10.00;99.90;;;;;;5014896;28;20115;-76
2023/05/15 03:37:21;;;;;;;8.95;5.47;;;10.00;99.90;;;;;;5010287;28;20053;-77
2023/05/15 03:39:47;;;;;;;8.57;5.28;;;10.00;99.90;;;;;;5013533;28;20034;-76
2023/05/15 03:42:12;;;;;;;9.15;5.97;;;10.00;99.90;;;;;;5008786;28;20037;-76
2023/05/15 03:44:38;;;;;;;9.27;5.65;;;10.00;99.90;;;;;;5012563;28;20042;-77
2023/05/15 03:47:04;;;;;;;10.30;5.68;;;10.10;99.90;;;;;;5012728;28;20477;-76
2023/05/15 03:49:29;;;;;;;8.68;5.35;;;10.10;99.90;;;;;;5012641;28;20085;-76
2023/05/15 03:51:56;;;;;;;8.20;5.53;;;10.00;99.90;;;;;;5012990;28;20100;-76
2023/05/15 03:54:22;;;;;;;10.50;5.90;;;10.10;99.90;;;;;;5009383;28;20108;-77
2023/05/15 03:56:47;;;;;;;9.40;6.03;;;10.00;99.90;;;;;;5016032;28;20069;-76
2023/05/15 03:59:13;;;;;;;11.68;5.40;;;10.00;99.90;;;;;;5010012;28;20066;-75
2023/05/15 04:01:39;;;;;;;8.45;5.57;;;10.00;99.90;;;;;;5010575;28;20046;-74
2023/05/15 04:04:04;;;;;;;9.73;5.72;;;10.10;99.90;;;;;;5006731;28;20014;-75
2023/05/15 04:06:30;;;;;;;9.98;5.72;;;10.10;99.90;;;;;;5012161;28;20417;-76
2023/05/15 04:08:56;;;;;;;9.50;5.55;;;10.10;99.90;;;;;;5010281;28;20037;-75
2023/05/15 04:11:22;;;;;;;8.52;5.72;;;10.10;99.90;;;;;;5013161;28;20045;-76
2023/05/15 04:13:48;;;;;;;7.32;5.65;;;10.20;99.90;;;;;;5012818;28;20038;-76
2023/05/15 04:16:13;;;;;;;8.68;5.30;;;10.20;99.90;;;;;;5010474;28;20036;-77
2023/05/15 04:18:39;;;;;;;8.90;6.10;;;10.20;99.90;;;;;;5012594;28;20114;-77
2023/05/15 04:21:05;;;;;;;10.27;5.93;;;10.20;99.90;;;;;;5013164;28;20077;-76
2023/05/15 04:23:30;;;;;;;8.98;5.88;;;10.20;99.90;;;;;;5015737;28;20041;-76
2023/05/15 04:25:56;;;;;;;9.32;5.70;;;10.20;99.90;;;;;;5014971;28;20117;-76
2023/05/15 04:28:22;;;;;;;9.80;5.35;;;10.20;99.90;;;;;;5014677;28;20038;-76
2023/05/15 04:30:47;;;;;;;10.00;5.55;;;10.20;99.90;;;;;;5012296;28;20391;-77
2023/05/15 04:33:13;;;;;;;8.98;5.25;;;10.20;99.90;;;;;;5015549;28;20542;-77
2023/05/15 04:35:39;;;;;;;9.48;5.78;;;10.30;99.90;;;;;;5014826;28;20390;-76
2023/05/15 04:38:05;;;;;;;7.80;5.55;;;10.20;99.90;;;;;;5012658;28;20061;-77
2023/05/15 04:40:31;;;;;;;8.05;5.47;;;10.30;99.90;;;;;;5009067;28;20117;-76
2023/05/15 04:42:56;;;;;;;10.30;5.45;;;10.30;99.90;;;;;;5013802;28;20045;-76
2023/05/15 04:45:23;;;;;;;7.57;5.32;;;10.30;99.90;;;;;;5014658;28;20060;-76
2023/05/15 04:47:49;;;;;;;8.32;5.95;;;10.30;99.90;;;;;;5015493;28;20037;-77
2023/05/15 04:50:15;;;;;;;9.02;5.78;;;10.30;99.90;;;;;;5012111;28;20058;-77
2023/05/15 04:52:41;;;;;;;10.40;5.85;;;10.30;99.90;;;;;;5012310;28;20064;-76
2023/05/15 04:55:08;;;;;;;10.38;5.68;;;10.30;99.90;;;;;;5016881;28;20029;-76
2023/05/15 04:57:34;;;;;;;8.70;5.70;;;10.30;99.90;;;;;;5013746;28;20057;-76
2023/05/15 05:00:00;;;;;;;9.23;5.88;;;10.30;99.90;;;;;;5011633;28;20044;-76
2023/05/15 05:02:26;;;;;;;8.73;5.20;;;10.40;99.90;;;;;;5008263;28;20034;-76
2023/05/15 05:04:51;;;;;;;8.82;5.30;;;10.40;99.90;;;;;;5010326;28;20032;-76
2023/05/15 05:07:17;;;;;;;8.02;5.70;;;10.40;99.90;;;;;;5013244;28;20044;-76
2023/05/15 05:09:43;;;;;;;11.18;5.88;;;10.50;99.90;;;;;;5014978;28;20136;-76
2023/05/15 05:12:09;;;;;;;10.93;6.50;;;10.50;99.90;;;;;;5009560;28;20041;-77
2023/05/15 05:14:35;;;;;;;8.23;5.20;;;10.50;99.90;;;;;;5011631;28;20049;-76
2023/05/15 05:17:01;;;;;;;10.20;5.43;;;10.50;99.90;;;;;;5012110;28;20038;-75
2023/05/15 05:19:27;;;;;;;8.23;5.07;;;10.50;99.90;;;;;;5008959;28;20033;-77
2023/05/15 05:21:53;;;;;;;10.00;5.47;;;10.60;99.90;;;;;;5013273;28;20105;-76
2023/05/15 05:24:19;;;;;;;9.00;5.38;;;10.70;99.90;;;;;;5009855;28;20040;-76
2023/05/15 05:26:45;;;;;;;9.85;5.13;;;10.70;99.90;;;;;;5012029;28;20124;-77
2023/05/15 05:29:10;;;;;;;12.27;5.65;;;10.70;99.90;;;;;;5012733;28;20041;-76
2023/05/15 05:31:36;;;;;;;10.75;5.45;;;10.80;99.90;;;;;;5015030;28;20061;-77
2023/05/15 05:34:02;;;;;;;7.35;4.93;;;10.80;99.90;;;;;;5008224;28;20109;-77
2023/05/15 05:36:33;;;;;;;10.68;6.13;;;10.90;99.90;;;;;;5010670;28;20121;-77
2023/05/15 05:38:59;;;;;;;10.00;6.47;;;10.90;99.90;;;;;;4999816;28;20041;-76
2023/05/15 05:41:25;;;;;;;10.05;6.30;;;10.90;99.90;;;;;;5018492;28;20034;-77
2023/05/15 05:43:50;;;;;;;10.52;5.80;;;11.00;99.90;;;;;;5012755;28;20053;-77
2023/05/15 05:46:16;;;;;;;8.95;6.30;;;11.00;99.90;;;;;;5016547;28;20175;-77
2023/05/15 05:48:41;;;;;;;8.57;6.18;;;11.10;99.90;;;;;;4996942;28;20066;-77
2023/05/15 05:51:07;;;;;;;8.07;5.70;;;11.20;99.90;;;;;;5014139;28;20113;-77
2023/05/15 05:53:33;;;;;;;8.98;5.82;;;11.20;99.90;;;;;;5014085;28;20478;-76
2023/05/15 05:55:59;;;;;;;10.07;5.82;;;11.30;99.90;;;;;;5010346;28;20056;-77
2023/05/15 05:58:25;;;;;;;9.43;5.65;;;11.30;99.90;;;;;;5008970;28;20125;-77
2023/05/15 06:00:51;;;;;;;8.85;5.97;;;11.30;99.90;;;;;;5010220;28;20062;-77
2023/05/15 06:03:16;;;;;;;8.60;5.93;;;11.40;99.90;;;;;;5011088;28;20056;-76
2023/05/15 06:05:42;;;;;;;9.18;6.03;;;11.50;99.90;;;;;;5010980;28;20486;-76
2023/05/15 06:08:08;;;;;;;9.90;5.20;;;11.60;99.90;;;;;;4996237;28;20054;-77
2023/05/15 06:10:34;;;;;;;9.73;5.97;;;11.60;99.90;;;;;;5011816;28;20033;-76
2023/05/15 06:13:00;;;;;;;8.45;5.75;;;11.70;99.90;;;;;;5011875;28;20041;-77
2023/05/15 06:15:25;;;;;;;8.27;5.35;;;11.70;99.90;;;;;;4994476;28;20041;-78
2023/05/15 06:17:51;;;;;;;9.77;5.88;;;11.70;99.90;;;;;;5011748;28;20037;-77
2023/05/15 06:20:17;;;;;;;9.13;6.20;;;11.80;99.90;;;;;;5013181;28;20029;-76
2023/05/15 06:22:42;;;;;;;8.00;5.57;;;11.90;99.90;;;;;;5017388;28;20088;-77
2023/05/15 06:25:12;;;;;;;9.02;6.05;;;11.90;99.90;;;;;;4998385;28;20037;-77
2023/05/15 06:27:39;;;;;;;9.07;5.38;;;12.00;99.90;;;;;;5011903;28;20041;-77
2023/05/15 06:30:06;;;;;;;7.65;5.57;;;12.00;99.90;;;;;;5011093;28;20070;-77
2023/05/15 06:32:32;;;;;;;6.80;5.50;;;12.10;99.90;;;;;;5010717;28;20038;-77
2023/05/15 06:34:58;;;;;;;7.63;5.65;;;12.10;99.90;;;;;;5013213;28;20529;-77
2023/05/15 06:37:23;;;;;;;8.57;5.55;;;12.20;99.90;;;;;;5012036;28;20026;-76
2023/05/15 06:39:49;;;;;;;8.38;5.75;;;12.30;99.90;;;;;;5012488;28;22171;-77
2023/05/15 06:42:15;;;;;;;10.68;5.82;;;12.30;99.90;;;;;;5010650;28;20393;-77
2023/05/15 06:44:40;;;;;;;10.25;6.13;;;12.40;99.90;;;;;;5009066;28;20073;-77
2023/05/15 06:47:06;;;;;;;10.02;5.32;;;12.50;99.90;;;;;;5018557;28;20094;-77
2023/05/15 06:49:31;;;;;;;7.75;5.10;;;12.60;99.90;;;;;;5015655;28;20053;-79
2023/05/15 06:51:57;;;;;;;8.35;5.40;;;12.80;99.90;;;;;;5013341;28;20045;-78
2023/05/15 06:54:23;;;;;;;8.73;5.93;;;13.00;99.90;;;;;;5010181;28;20063;-78
2023/05/15 06:56:48;;;;;;;7.38;5.75;;;13.10;99.90;;;;;;5014483;28;20470;-76
2023/05/15 06:59:14;;;;;;;8.35;5.38;;;13.20;99.90;;;;;;5012498;28;20161;-76
2023/05/15 07:01:40;;;;;;;8.57;5.70;;;13.40;99.90;;;;;;5013123;28;20041;-77
2023/05/15 07:04:05;;;;;;;7.60;4.60;;;13.50;99.90;;;;;;5011022;28;20061;-76
2023/05/15 07:06:31;;;;;;;9.27;5.65;;;13.40;99.90;;;;;;5012231;28;20073;-76
2023/05/15 07:08:58;;;;;;;5.90;4.80;;;13.40;99.90;;;;;;4995018;28;20030;-77
2023/05/15 07:11:24;;;;;;;7.22;5.78;;;13.40;99.90;;;;;;5012593;28;20585;-75
2023/05/15 07:13:51;;;;;;;8.45;5.95;;;13.40;99.90;;;;;;5005432;28;20035;-75
2023/05/15 07:16:16;;;;;;;8.25;5.70;;;13.40;99.90;;;;;;5013183;28;20642;-75
2023/05/15 07:18:42;;;;;;;7.43;5.10;;;13.40;99.90;;;;;;5012382;28;20120;-76
2023/05/15 07:21:07;;;;;;;7.97;5.60;;;13.40;99.90;;;;;;5012483;28;20030;-76
2023/05/15 07:23:33;;;;;;;8.05;6.05;;;13.40;99.90;;;;;;5006922;28;20036;-76
2023/05/15 07:25:58;;;;;;;6.70;5.18;;;13.60;99.90;;;;;;5010239;28;20488;-76
2023/05/15 07:28:24;;;;;;;8.68;4.53;;;13.70;99.90;;;;;;5009945;28;20041;-76
2023/05/15 07:30:51;;;;;;;8.95;5.38;;;13.80;99.90;;;;;;5010094;28;20056;-76
2023/05/15 07:33:16;;;;;;;7.63;5.28;;;13.60;99.90;;;;;;5008919;28;20145;-75
2023/05/15 07:35:42;;;;;;;8.23;5.50;;;13.60;99.90;;;;;;5009159;28;20042;-76
2023/05/15 07:38:07;;;;;;;9.20;5.00;;;13.70;99.90;;;;;;5011642;28;20059;-76
2023/05/15 07:40:33;;;;;;;8.25;5.10;;;13.70;99.90;;;;;;4992921;28;20029;-75
2023/05/15 07:42:58;;;;;;;7.68;5.55;;;13.70;99.90;;;;;;5006854;28;20038;-76
2023/05/15 07:45:24;;;;;;;6.90;5.15;;;13.70;99.90;;;;;;5009656;28;20030;-75
2023/05/15 07:47:50;;;;;;;8.13;5.75;;;13.80;99.90;;;;;;5017289;28;20041;-77
2023/05/15 07:50:16;;;;;;;7.30;4.47;;;14.00;99.90;;;;;;4995899;28;20073;-76
2023/05/15 07:52:42;;;;;;;6.72;4.88;;;14.30;99.90;;;;;;5013712;28;20060;-76
2023/05/15 07:55:11;;;;;;;6.32;5.18;;;14.60;99.90;;;;;;5011226;28;20093;-76
2023/05/15 07:57:37;;;;;;;8.25;4.13;;;14.70;99.90;;;;;;5013119;28;20041;-77
2023/05/15 08:00:08;;;;;;;7.97;5.15;;;14.60;99.90;;;;;;5015648;28;20030;-76
2023/05/15 08:02:34;;;;;;;7.38;5.40;;;14.60;99.90;;;;;;5006623;28;20049;-77
2023/05/15 08:05:00;;;;;;;7.75;5.20;;;14.50;99.90;;;;;;5020351;28;20028;-76
2023/05/15 08:07:26;;;;;;;7.35;5.35;;;14.40;99.90;;;;;;5016546;28;20115;-76
2023/05/15 08:09:51;;;;;;;6.80;5.20;;;14.50;99.90;;;;;;5012853;28;20492;-76
2023/05/15 08:12:19;;;;;;;7.00;5.28;;;14.40;99.90;;;;;;5012806;28;20026;-76
2023/05/15 08:14:52;;;;;;;6.80;5.25;;;14.50;99.90;;;;;;5014390;28;20033;-76
2023/05/15 08:17:19;;;;;;;6.13;4.72;;;14.60;99.90;;;;;;5014555;28;20076;-76
2023/05/15 08:19:45;;;;;;;6.32;4.80;;;14.80;99.90;;;;;;5010403;28;20041;-77
2023/05/15 08:22:11;;;;;;;7.47;5.00;;;14.80;99.90;;;;;;5014766;28;20030;-77
2023/05/15 08:24:42;;;;;;;7.25;4.95;;;15.00;99.90;;;;;;5005960;28;20065;-78
2023/05/15 08:27:08;;;;;;;6.60;5.22;;;15.00;99.90;;;;;;5013422;28;20030;-77
2023/05/15 08:29:37;;;;;;;7.22;5.07;;;15.10;99.90;;;;;;5009844;28;20065;-76
2023/05/15 08:32:04;;;;;;;6.57;4.32;;;15.30;99.90;;;;;;5013588;28;20481;-77
2023/05/15 08:34:30;;;;;;;5.65;4.47;;;15.50;99.90;;;;;;5010440;28;20120;-77
2023/05/15 08:36:56;;;;;;;5.57;4.50;;;15.50;99.90;;;;;;5015698;28;20048;-76
2023/05/15 08:39:24;;;;;;;6.75;5.22;;;15.50;99.90;;;;;;5014177;28;20125;-76
2023/05/15 08:41:56;;;;;;;7.43;4.43;;;15.70;99.90;;;;;;5010665;28;20042;-77
2023/05/15 08:44:22;;;;;;;6.55;4.88;;;15.80;99.90;;;;;;5010169;28;20588;-77
2023/05/15 08:46:48;;;;;;;6.70;4.78;;;15.60;99.90;;;;;;5009414;28;20062;-76
2023/05/15 08:49:16;;;;;;;7.00;5.05;;;15.50;99.90;;;;;;5002993;28;20074;-76
2023/05/15 08:51:42;;;;;;;5.55;4.53;;;15.30;99.90;;;;;;5010939;28;20046;-76
2023/05/15 08:54:08;;;;;;;6.07;3.95;;;15.10;99.90;;;;;;5011517;28;20026;-76
2023/05/15 08:56:35;;;;;;;5.70;4.60;;;14.80;99.90;;;;;;5014518;28;20026;-76
2023/05/15 08:59:00;;;;;;;8.45;6.18;;;14.60;99.90;;;;;;5009771;28;20132;-76
2023/05/15 09:01:27;;;;;;;6.32;4.93;;;14.60;99.90;;;;;;4996036;28;20082;-76
2023/05/15 09:03:53;;;;;;;6.95;4.80;;;14.80;99.90;;;;;;5012816;28;20037;-76
2023/05/15 09:06:19;;;;;;;6.00;4.32;;;15.30;99.90;;;;;;5016333;28;20042;-76
2023/05/15 09:08:46;;;;;;;5.25;4.40;;;15.50;99.90;;;;;;5010967;28;20040;-76
2023/05/15 09:11:12;;;;;;;5.57;4.13;;;15.70;99.90;;;;;;5013223;28;20697;-77
2023/05/15 09:13:38;;;;;;;6.72;4.32;;;15.60;99.90;;;;;;5012876;28;20045;-77
2023/05/15 09:16:04;;;;;;;5.38;4.30;;;15.50;99.90;;;;;;5012629;28;20023;-77
2023/05/15 09:18:31;;;;;;;5.70;4.55;;;15.50;99.90;;;;;;5013840;28;20413;-77
2023/05/15 09:21:21;;;;;;;4.33;3.90;;;15.40;99.90;;;;;;5015179;28;20038;-77
2023/05/15 09:23:46;;;;;;;8.43;4.03;;;15.50;99.90;;;;;;5015302;28;20381;-76
2023/05/15 09:26:12;;;;;;;5.65;3.90;;;15.30;99.90;;;;;;4995406;28;20138;-76
2023/05/15 09:28:38;;;;;;;4.82;3.97;;;15.40;99.90;;;;;;5011590;28;20703;-77
2023/05/15 09:31:04;;;;;;;7.57;4.07;;;15.60;99.90;;;;;;5008342;28;20037;-77
2023/05/15 09:33:38;;;;;;;4.78;4.22;;;15.90;99.90;;;;;;5010665;28;20030;-76
2023/05/15 09:36:05;;;;;;;5.47;4.43;;;16.10;99.90;;;;;;5016761;28;20034;-77
2023/05/15 09:38:39;;;;;;;3.33;3.03;;;16.20;99.90;;;;;;5014555;28;20033;-77
2023/05/15 09:41:06;;;;;;;3.95;3.55;;;16.10;99.90;;;;;;5013551;28;20364;-77
2023/05/15 09:43:39;;;;;;;4.68;3.92;;;15.90;99.90;;;;;;5015260;28;20160;-77
2023/05/15 09:46:07;;;;;;;5.95;4.35;;;16.30;99.90;;;;;;5017273;28;20658;-76
2023/05/15 09:48:34;;;;;;;6.60;4.37;;;16.50;99.90;;;;;;5016703;28;20476;-76
2023/05/15 09:51:00;;;;;;;4.15;3.38;;;16.10;99.90;;;;;;5012124;28;20565;-77
2023/05/15 09:53:27;;;;;;;4.93;3.83;;;15.90;99.90;;;;;;5015465;28;20016;-77
2023/05/15 09:55:53;;;;;;;5.18;3.92;;;15.90;99.90;;;;;;5015167;28;20116;-77
2023/05/15 09:58:19;;;;;;;4.90;3.78;;;15.90;99.90;;;;;;5012695;28;20471;-77
2023/05/15 10:00:46;;;;;;;5.20;3.97;;;16.00;99.90;;;;;;5009126;28;20041;-77
2023/05/15 10:03:13;;;;;;;4.43;3.47;;;15.90;99.90;;;;;;5013274;28;20026;-78
2023/05/15 10:05:39;;;;;;;5.20;3.63;;;15.90;99.90;;;;;;5011674;28;20034;-78
2023/05/15 10:08:05;;;;;;;4.88;3.70;;;16.00;99.90;;;;;;5012411;28;20504;-78
2023/05/15 10:10:32;;;;;;;3.83;3.53;;;16.00;99.90;;;;;;5006457;28;20138;-78
2023/05/15 10:13:02;;;;;;;5.53;3.92;;;16.10;99.90;;;;;;5011289;28;20108;-78
2023/05/15 10:15:28;;;;;;;5.35;3.90;;;15.90;99.90;;;;;;5009691;28;20026;-78
2023/05/15 10:17:53;;;;;;;8.18;3.85;;;15.90;99.90;;;;;;5012769;28;20767;-78
2023/05/15 10:20:21;;;;;;;4.22;3.83;;;15.90;99.90;;;;;;5011204;28;20489;-78
2023/05/15 10:22:52;;;;;;;2.08;1.95;;;16.00;99.90;;;;;;5005413;28;20113;-78
2023/05/15 10:25:44;;;;;;;1.90;1.80;;;15.50;99.90;;;;;;5012493;28;20044;-78
2023/05/15 10:28:10;;;;;;;2.08;1.90;;;15.00;99.90;;;;;;5007964;28;20125;-78
2023/05/15 10:30:37;;;;;;;2.35;2.15;;;14.90;99.90;;;;;;5013398;28;20088;-78
2023/05/15 10:33:04;;;;;;;3.90;2.63;;;14.80;99.90;;;;;;5015243;28;20322;-78
2023/05/15 10:35:30;;;;;;;2.28;2.08;;;14.70;99.90;;;;;;5009957;28;20137;-78
2023/05/15 10:37:56;;;;;;;2.08;1.88;;;14.50;99.90;;;;;;5012147;28;20033;-77
2023/05/15 10:40:23;;;;;;;3.38;2.92;;;14.30;99.90;;;;;;5000366;28;20041;-76
2023/05/15 10:42:49;;;;;;;3.17;2.70;;;13.80;99.90;;;;;;5005739;28;20072;-76
2023/05/15 10:45:15;;;;;;;5.00;2.70;;;13.60;99.90;;;;;;5009766;28;20037;-76
2023/05/15 10:47:41;;;;;;;5.80;2.92;;;13.60;99.90;;;;;;5001144;28;20546;-75
2023/05/15 10:50:08;;;;;;;3.45;2.60;;;13.70;99.90;;;;;;5010505;28;20058;-76
2023/05/15 10:52:37;;;;;;;3.17;2.47;;;13.80;99.90;;;;;;5010462;28;20038;-75
2023/05/15 10:55:08;;;;;;;2.70;2.50;;;13.80;99.90;;;;;;5014816;28;20038;-75
2023/05/15 10:57:34;;;;;;;4.35;2.85;;;13.90;99.90;;;;;;5009143;28;20103;-76
2023/05/15 11:00:01;;;;;;;3.42;2.83;;;14.00;99.90;;;;;;5007110;28;20037;-77
2023/05/15 11:02:30;;;;;;;4.13;3.15;;;14.10;99.90;;;;;;5010495;28;20050;-75
2023/05/15 11:05:00;;;;;;;3.75;3.15;;;14.20;99.90;;;;;;5013772;28;20010;-76
2023/05/15 11:07:26;;;;;;;4.00;2.85;;;14.30;99.90;;;;;;5012388;28;20017;-75
2023/05/15 11:09:53;;;;;;;5.78;2.90;;;14.30;99.90;;;;;;5013891;28;20030;-75
2023/05/15 11:12:19;;;;;;;2.97;2.67;;;14.30;99.90;;;;;;5011323;28;20485;-78
2023/05/15 11:14:51;;;;;;;3.63;3.08;;;14.40;99.90;;;;;;5004907;28;20034;-75
2023/05/15 11:17:17;;;;;;;3.53;3.17;;;14.50;99.90;;;;;;5011905;28;20037;-75
2023/05/15 11:19:48;;;;;;;2.85;2.53;;;14.50;99.90;;;;;;5009782;28;20030;-75
2023/05/15 11:22:21;;;;;;;3.90;3.05;;;14.60;99.90;;;;;;5013432;28;20529;-75
2023/05/15 11:25:08;;;;;;;3.00;2.70;;;14.70;99.90;;;;;;5009128;28;20054;-77
2023/05/15 11:27:40;;;;;;;3.03;2.70;;;14.90;99.90;;;;;;5008330;28;20034;-76
2023/05/15 11:30:06;;;;;;;4.03;2.80;;;15.00;99.90;;;;;;5009644;28;20030;-76
2023/05/15 11:32:49;;;;;;;3.80;3.40;;;15.30;99.90;;;;;;5007693;28;20045;-76
2023/05/15 11:35:27;;;;;;;3.95;3.55;;;15.70;99.90;;;;;;5009114;28;20033;-76
2023/05/15 11:37:57;;;;;;;;;;;16.50;99.90;;;;;;5009207;28;20126;-77
2023/05/15 11:40:28;;;;;;;4.03;3.65;;;16.50;99.90;;;;;;4993140;28;20359;-76
2023/05/15 11:43:17;;;;;;;4.70;4.28;;;16.30;99.90;;;;;;5010756;28;20034;-76
2023/05/15 11:45:51;;;;;;;5.22;3.95;;;16.30;99.90;;;;;;5012630;28;20042;-75
2023/05/15 11:48:18;;;;;;;7.93;4.30;;;16.40;99.90;;;;;;5010835;28;20025;-76
2023/05/15 11:50:44;;;;;;;5.75;4.10;;;16.90;99.90;;;;;;5011052;28;20033;-75
2023/05/15 11:53:11;;;;;;;5.57;4.38;;;17.40;99.90;;;;;;5012059;28;20034;-75
2023/05/15 11:55:39;;;;;;;4.65;3.85;;;17.80;99.90;;;;;;5011047;28;20057;-76
2023/05/15 11:58:04;;;;;;;;;;;17.90;99.90;;;;;;5008245;28;20429;-76
2023/05/15 12:00:30;;;;;;;6.22;4.78;;;17.70;99.90;;;;;;5010584;28;19920;-77
2023/05/15 12:02:56;;;;;;;5.22;4.15;;;17.60;99.90;;;;;;5012555;28;20026;-76
2023/05/15 12:05:22;;;;;;;7.68;4.32;;;17.60;99.90;;;;;;5010951;28;20045;-77
2023/05/15 12:07:51;;;;;;;6.03;4.18;;;17.80;99.90;;;;;;5011221;28;20041;-75
2023/05/15 12:10:16;;;;;;;5.25;4.40;;;17.70;99.90;;;;;;5010948;28;20113;-76
2023/05/15 12:12:44;;;;;;;5.47;4.25;;;17.50;99.90;;;;;;5008827;28;20122;-75
2023/05/15 12:15:11;;;;;;;5.30;4.38;;;17.20;99.90;;;;;;5007458;28;20037;-74
2023/05/15 12:17:40;;;;;;;4.13;3.47;;;17.00;99.90;;;;;;5011443;28;20054;-75
2023/05/15 12:20:08;;;;;;;3.33;2.88;;;15.90;99.90;;;;;;5011951;28;20044;-75
2023/05/15 12:22:43;;;;;;;3.30;3.00;;;15.50;99.90;;;;;;5014632;28;20034;-75
2023/05/15 12:25:10;;;;;;;3.53;3.15;;;15.40;99.90;;;;;;5008000;28;20033;-76
2023/05/15 12:27:38;;;;;;;3.40;2.90;;;15.20;99.90;;;;;;5012440;28;20042;-76
2023/05/15 12:30:05;;;;;;;2.70;2.50;;;15.30;99.90;;;;;;5008156;28;20533;-76
2023/05/15 12:32:32;;;;;;;1.95;1.85;;;15.40;99.90;;;;;;5012422;28;20289;-76
2023/05/15 12:34:59;;;;;;;2.55;2.10;;;14.80;99.90;;;;;;5016566;28;20049;-75
2023/05/15 12:37:25;;;;;;;4.18;1.58;;;14.10;99.90;;;;;;5011952;28;20037;-73
2023/05/15 12:39:55;;;;;;;6.20;2.80;;;13.30;99.90;;;;;;5007892;28;20528;-72
2023/05/15 12:42:22;;;;;;;7.60;3.28;;;12.90;99.90;;;;;;5001791;28;20037;-72
2023/05/15 12:44:52;;;;;;;3.67;2.70;;;12.80;99.90;;;;;;5008378;28;20508;-72
2023/05/15 12:47:26;;;;;;;6.47;3.30;;;12.80;99.90;;;;;;5001797;28;20030;-72
2023/05/15 12:49:56;;;;;;;3.40;3.10;;;12.90;99.90;;;;;;5007082;28;20082;-72